map of IST home
IST - Airport
Location
City:  Istanbul, Turkey
Name:Atatürk International Airport
Old (Alt.):Yesilköy International Airport
ICAO:LTBA
IATA:IST

Details
Type:Airport (Aerodrome, Airfield)
Use:Public/Civil, International (customs port of entry)
Latitude:40°58'34"N (40.976111)
Longitude:28°48'50"E (28.813889)
Elevation:163 ft (50 m)
Variation:5.34°E (WMM2015 magnetic declination)
0.10° annual change
Runways:3
Longest:9843 × 148 ft (3000 × 45 m), paved

Time
Time Zone:UTC+3
Local Time:

Weather
METAR:LTBA 221350Z VRB10KT 9999 SCT013 BKN025 05/01 Q1033 NOSIG

Related Locations
Nearby:
Farthest:RVV: 11235 mi / 18081 km
Raivavae, Tubuai Islands, Austral Islands, PF

Find:

   beyond  
but within

Other Information
Maps:
NOTAMs:
Links:
Sources:

  
flag of Turkey   

Airport Diagram

Airport diagram for IST

Airport diagram (OBSOLETE) from NGA

Sectional Chart

Flight Planning
at skyvector.com

Satellite Image

Google Maps Satellite view

 

Copyright © 2004-2017 Karl L. Swartz. All rights reserved.
The Great Circle Mapper name and logo are trademarks of the Great Circle Mapper.
All other trademarks mentioned herein belong to their respective owners.
Please see credits for attibutions and further copyright information.

  Follow gcmap on Facebook Follow gcmap on Twitter Follow gcmap on Google+ GCmap on LinkedIn

hCard Microformat

Geo Microformat